sensor_id;sensor_type;location;lat;lon;timestamp;pressure;altitude;pressure_sealevel;temperature;humidity
13968;BME280;39536;52.198;9.920;2022-08-16T00:00:16;99737.97;;;22.55;74.15
13968;BME280;39536;52.198;9.920;2022-08-16T00:02:43;99727.53;;;22.44;73.80
13968;BME280;39536;52.198;9.920;2022-08-16T00:05:11;99730.03;;;22.46;74.21
13968;BME280;39536;52.198;9.920;2022-08-16T00:07:38;99731.47;;;22.40;74.06
13968;BME280;39536;52.198;9.920;2022-08-16T00:10:06;99729.91;;;22.47;74.17
13968;BME280;39536;52.198;9.920;2022-08-16T00:12:33;99734.63;;;22.53;74.66
13968;BME280;39536;52.198;9.920;2022-08-16T00:15:07;99727.72;;;22.60;74.11
13968;BME280;39536;52.198;9.920;2022-08-16T00:17:34;99730.91;;;22.46;73.82
13968;BME280;39536;52.198;9.920;2022-08-16T00:20:01;99725.97;;;22.51;74.11
13968;BME280;39536;52.198;9.920;2022-08-16T00:22:27;99731.28;;;22.51;73.73
13968;BME280;39536;52.198;9.920;2022-08-16T00:24:54;99733.09;;;22.51;73.28
13968;BME280;39536;52.198;9.920;2022-08-16T00:27:21;99739.53;;;22.48;73.40
13968;BME280;39536;52.198;9.920;2022-08-16T00:29:47;99739.44;;;22.40;73.13
13968;BME280;39536;52.198;9.920;2022-08-16T00:32:16;99737.81;;;22.20;73.66
13968;BME280;39536;52.198;9.920;2022-08-16T00:34:42;99741.59;;;22.17;74.30
13968;BME280;39536;52.198;9.920;2022-08-16T00:37:09;99746.06;;;22.17;73.86
13968;BME280;39536;52.198;9.920;2022-08-16T00:39:35;99738.34;;;22.23;74.21
13968;BME280;39536;52.198;9.920;2022-08-16T00:42:02;99743.25;;;22.28;74.20
13968;BME280;39536;52.198;9.920;2022-08-16T00:44:28;99737.66;;;22.31;74.03
13968;BME280;39536;52.198;9.920;2022-08-16T00:46:59;99742.53;;;22.26;74.63
13968;BME280;39536;52.198;9.920;2022-08-16T00:49:31;99747.28;;;22.32;73.90
13968;BME280;39536;52.198;9.920;2022-08-16T00:51:58;99748.31;;;22.21;73.92
13968;BME280;39536;52.198;9.920;2022-08-16T00:54:27;99746.19;;;22.15;73.73
13968;BME280;39536;52.198;9.920;2022-08-16T00:56:55;99741.59;;;22.17;73.72
13968;BME280;39536;52.198;9.920;2022-08-16T00:59:24;99737.97;;;22.18;73.84
13968;BME280;39536;52.198;9.920;2022-08-16T01:01:52;99744.78;;;22.21;73.74
13968;BME280;39536;52.198;9.920;2022-08-16T01:04:21;99743.28;;;22.18;74.03
13968;BME280;39536;52.198;9.920;2022-08-16T01:06:49;99749.41;;;22.19;74.14
13968;BME280;39536;52.198;9.920;2022-08-16T01:09:16;99749.97;;;22.22;73.55
13968;BME280;39536;52.198;9.920;2022-08-16T01:11:43;99751.63;;;22.23;73.26
13968;BME280;39536;52.198;9.920;2022-08-16T01:14:14;99746.91;;;22.17;73.27
13968;BME280;39536;52.198;9.920;2022-08-16T01:16:44;99748.44;;;22.00;74.03
13968;BME280;39536;52.198;9.920;2022-08-16T01:19:16;99754.31;;;21.94;73.99
13968;BME280;39536;52.198;9.920;2022-08-16T01:21:53;99750.56;;;21.87;74.14
13968;BME280;39536;52.198;9.920;2022-08-16T01:24:27;99749.97;;;21.93;73.93
13968;BME280;39536;52.198;9.920;2022-08-16T01:26:59;99754.47;;;21.83;74.37
13968;BME280;39536;52.198;9.920;2022-08-16T01:29:31;99759.22;;;21.79;74.74
13968;BME280;39536;52.198;9.920;2022-08-16T01:31:58;99754.63;;;21.81;75.04
13968;BME280;39536;52.198;9.920;2022-08-16T01:34:24;99761.03;;;21.79;75.14
13968;BME280;39536;52.198;9.920;2022-08-16T01:36:59;99758.22;;;21.80;75.06
13968;BME280;39536;52.198;9.920;2022-08-16T01:39:27;99763.25;;;21.83;75.31
13968;BME280;39536;52.198;9.920;2022-08-16T01:41:54;99760.47;;;21.95;74.49
13968;BME280;39536;52.198;9.920;2022-08-16T01:44:20;99763.41;;;21.91;74.69
13968;BME280;39536;52.198;9.920;2022-08-16T01:46:48;99760.75;;;21.91;74.21
13968;BME280;39536;52.198;9.920;2022-08-16T01:49:17;99773.28;;;21.89;74.72
13968;BME280;39536;52.198;9.920;2022-08-16T01:51:46;99766.75;;;21.94;74.61
13968;BME280;39536;52.198;9.920;2022-08-16T01:54:13;99768.25;;;21.96;74.45
13968;BME280;39536;52.198;9.920;2022-08-16T01:56:41;99766.31;;;21.98;74.49
13968;BME280;39536;52.198;9.920;2022-08-16T01:59:10;99771.50;;;22.00;74.36
13968;BME280;39536;52.198;9.920;2022-08-16T02:01:37;99768.97;;;21.98;74.20
13968;BME280;39536;52.198;9.920;2022-08-16T02:04:04;99781.81;;;21.93;74.94
13968;BME280;39536;52.198;9.920;2022-08-16T02:06:30;99776.91;;;21.98;74.79
13968;BME280;39536;52.198;9.920;2022-08-16T02:08:58;99778.75;;;21.98;74.64
13968;BME280;39536;52.198;9.920;2022-08-16T02:11:26;99772.88;;;21.94;74.11
13968;BME280;39536;52.198;9.920;2022-08-16T02:13:54;99778.50;;;21.81;75.10
13968;BME280;39536;52.198;9.920;2022-08-16T02:16:21;99774.44;;;21.87;75.63
13968;BME280;39536;52.198;9.920;2022-08-16T02:18:47;99774.44;;;21.87;76.11
13968;BME280;39536;52.198;9.920;2022-08-16T02:21:15;99775.84;;;21.81;76.47
13968;BME280;39536;52.198;9.920;2022-08-16T02:23:43;99773.19;;;21.72;76.72
13968;BME280;39536;52.198;9.920;2022-08-16T02:26:10;99776.41;;;21.65;77.40
13968;BME280;39536;52.198;9.920;2022-08-16T02:28:37;99781.72;;;21.56;77.91
13968;BME280;39536;52.198;9.920;2022-08-16T02:31:07;99773.31;;;21.51;78.07
13968;BME280;39536;52.198;9.920;2022-08-16T02:33:35;99778.34;;;21.44;78.73
13968;BME280;39536;52.198;9.920;2022-08-16T02:36:02;99787.53;;;21.40;78.60
13968;BME280;39536;52.198;9.920;2022-08-16T02:38:29;99778.44;;;21.33;78.77
13968;BME280;39536;52.198;9.920;2022-08-16T02:40:56;99784.16;;;21.28;79.10
13968;BME280;39536;52.198;9.920;2022-08-16T02:43:24;99788.19;;;21.32;79.23
13968;BME280;39536;52.198;9.920;2022-08-16T02:45:50;99783.72;;;21.23;79.20
13968;BME280;39536;52.198;9.920;2022-08-16T02:48:18;99778.00;;;21.28;79.33
13968;BME280;39536;52.198;9.920;2022-08-16T02:50:44;99781.63;;;21.27;79.24
13968;BME280;39536;52.198;9.920;2022-08-16T02:53:11;99791.41;;;21.26;79.11
13968;BME280;39536;52.198;9.920;2022-08-16T02:55:37;99785.81;;;21.29;78.97
13968;BME280;39536;52.198;9.920;2022-08-16T02:58:04;99790.41;;;21.27;79.04
13968;BME280;39536;52.198;9.920;2022-08-16T03:00:31;99795.56;;;21.19;79.63
13968;BME280;39536;52.198;9.920;2022-08-16T03:02:57;99788.03;;;21.14;79.39
13968;BME280;39536;52.198;9.920;2022-08-16T03:05:25;99795.13;;;21.14;79.03
13968;BME280;39536;52.198;9.920;2022-08-16T03:07:52;99789.84;;;21.14;78.70
13968;BME280;39536;52.198;9.920;2022-08-16T03:10:18;99786.09;;;21.16;78.53
13968;BME280;39536;52.198;9.920;2022-08-16T03:12:45;99787.47;;;21.11;79.01
13968;BME280;39536;52.198;9.920;2022-08-16T03:15:14;99785.94;;;21.18;78.73
13968;BME280;39536;52.198;9.920;2022-08-16T03:17:40;99792.22;;;21.17;78.62
13968;BME280;39536;52.198;9.920;2022-08-16T03:20:10;99790.56;;;21.16;78.86
13968;BME280;39536;52.198;9.920;2022-08-16T03:22:38;99787.69;;;20.88;77.96
13968;BME280;39536;52.198;9.920;2022-08-16T03:25:07;99785.34;;;20.95;78.34
13968;BME280;39536;52.198;9.920;2022-08-16T03:27:35;99795.69;;;21.08;78.09
13968;BME280;39536;52.198;9.920;2022-08-16T03:30:08;99787.06;;;21.15;77.85
13968;BME280;39536;52.198;9.920;2022-08-16T03:32:35;99795.41;;;21.20;77.96
13968;BME280;39536;52.198;9.920;2022-08-16T03:35:02;99795.31;;;21.22;77.97
13968;BME280;39536;52.198;9.920;2022-08-16T03:37:28;99799.50;;;21.25;77.94
13968;BME280;39536;52.198;9.920;2022-08-16T03:39:56;99798.91;;;21.21;78.11
13968;BME280;39536;52.198;9.920;2022-08-16T03:42:23;99791.38;;;21.16;78.03
13968;BME280;39536;52.198;9.920;2022-08-16T03:44:49;99787.19;;;21.14;78.26
13968;BME280;39536;52.198;9.920;2022-08-16T03:47:15;99791.50;;;21.15;77.98
13968;BME280;39536;52.198;9.920;2022-08-16T03:49:43;99785.50;;;21.03;78.26
13968;BME280;39536;52.198;9.920;2022-08-16T03:52:09;99788.97;;;21.04;77.95
13968;BME280;39536;52.198;9.920;2022-08-16T03:54:37;99788.56;;;21.08;77.67
13968;BME280;39536;52.198;9.920;2022-08-16T03:57:05;99791.09;;;21.10;77.51
13968;BME280;39536;52.198;9.920;2022-08-16T03:59:31;99793.59;;;21.11;77.45
13968;BME280;39536;52.198;9.920;2022-08-16T04:01:59;99791.34;;;20.97;77.90
13968;BME280;39536;52.198;9.920;2022-08-16T04:04:25;99795.06;;;20.85;78.37
13968;BME280;39536;52.198;9.920;2022-08-16T04:06:52;99795.06;;;20.85;78.46
13968;BME280;39536;52.198;9.920;2022-08-16T04:09:19;99800.66;;;20.91;78.31
13968;BME280;39536;52.198;9.920;2022-08-16T04:11:45;99796.16;;;20.82;78.64
13968;BME280;39536;52.198;9.920;2022-08-16T04:14:13;99798.34;;;20.77;79.22
13968;BME280;39536;52.198;9.920;2022-08-16T04:16:39;99797.69;;;20.75;79.01
13968;BME280;39536;52.198;9.920;2022-08-16T04:19:06;99802.63;;;20.68;78.83
13968;BME280;39536;52.198;9.920;2022-08-16T04:21:34;99793.44;;;20.63;79.25
13968;BME280;39536;52.198;9.920;2022-08-16T04:24:02;99802.91;;;20.65;78.81
13968;BME280;39536;52.198;9.920;2022-08-16T04:26:29;99805.69;;;20.64;79.31
13968;BME280;39536;52.198;9.920;2022-08-16T04:28:55;99798.16;;;20.59;79.51
13968;BME280;39536;52.198;9.920;2022-08-16T04:31:23;99799.75;;;20.50;80.18
13968;BME280;39536;52.198;9.920;2022-08-16T04:33:50;99803.50;;;20.48;80.90
13968;BME280;39536;52.198;9.920;2022-08-16T04:36:18;99805.78;;;20.52;80.25
13968;BME280;39536;52.198;9.920;2022-08-16T04:38:44;99808.16;;;20.56;79.96
13968;BME280;39536;52.198;9.920;2022-08-16T04:41:11;99810.47;;;20.49;80.11
13968;BME280;39536;52.198;9.920;2022-08-16T04:43:37;99812.22;;;20.39;80.69
13968;BME280;39536;52.198;9.920;2022-08-16T04:46:04;99811.56;;;20.46;80.72
13968;BME280;39536;52.198;9.920;2022-08-16T04:48:32;99811.78;;;20.55;80.60
13968;BME280;39536;52.198;9.920;2022-08-16T04:50:59;99810.81;;;20.56;80.52
13968;BME280;39536;52.198;9.920;2022-08-16T04:53:25;99804.03;;;20.63;80.72
13968;BME280;39536;52.198;9.920;2022-08-16T04:55:53;99813.91;;;20.61;80.67
13968;BME280;39536;52.198;9.920;2022-08-16T04:58:19;99818.22;;;20.62;80.14
13968;BME280;39536;52.198;9.920;2022-08-16T05:00:45;99812.66;;;20.65;79.90
13968;BME280;39536;52.198;9.920;2022-08-16T05:03:12;99815.75;;;20.70;79.45
13968;BME280;39536;52.198;9.920;2022-08-16T05:05:40;99825.50;;;20.69;79.32
13968;BME280;39536;52.198;9.920;2022-08-16T05:08:07;99820.63;;;20.74;79.17
13968;BME280;39536;52.198;9.920;2022-08-16T05:10:34;99818.59;;;20.78;79.39
13968;BME280;39536;52.198;9.920;2022-08-16T05:13:02;99826.31;;;20.91;78.87
13968;BME280;39536;52.198;9.920;2022-08-16T05:15:29;99834.38;;;20.99;78.75
13968;BME280;39536;52.198;9.920;2022-08-16T05:17:56;99828.03;;;21.11;77.82
13968;BME280;39536;52.198;9.920;2022-08-16T05:20:22;99838.22;;;21.16;77.26
13968;BME280;39536;52.198;9.920;2022-08-16T05:22:50;99836.25;;;21.18;76.85
13968;BME280;39536;52.198;9.920;2022-08-16T05:25:17;99838.25;;;21.26;76.31
13968;BME280;39536;52.198;9.920;2022-08-16T05:27:44;99832.53;;;21.30;75.92
13968;BME280;39536;52.198;9.920;2022-08-16T05:30:12;99842.84;;;21.33;76.01
13968;BME280;39536;52.198;9.920;2022-08-16T05:32:39;99841.94;;;21.44;75.87
13968;BME280;39536;52.198;9.920;2022-08-16T05:35:08;99849.06;;;21.53;75.33
13968;BME280;39536;52.198;9.920;2022-08-16T05:37:36;99851.03;;;21.61;74.94
13968;BME280;39536;52.198;9.920;2022-08-16T05:40:05;99858.00;;;21.62;74.87
13968;BME280;39536;52.198;9.920;2022-08-16T05:42:32;99855.66;;;21.59;74.50
13968;BME280;39536;52.198;9.920;2022-08-16T05:44:59;99862.06;;;21.66;74.10
13968;BME280;39536;52.198;9.920;2022-08-16T05:47:26;99860.66;;;21.62;73.83
13968;BME280;39536;52.198;9.920;2022-08-16T05:49:52;99865.44;;;21.78;74.16
13968;BME280;39536;52.198;9.920;2022-08-16T05:52:19;99863.19;;;21.92;73.51
13968;BME280;39536;52.198;9.920;2022-08-16T05:54:45;99864.31;;;22.00;73.36
13968;BME280;39536;52.198;9.920;2022-08-16T05:57:13;99864.59;;;22.06;72.89
13968;BME280;39536;52.198;9.920;2022-08-16T05:59:40;99869.47;;;22.11;72.58
13968;BME280;39536;52.198;9.920;2022-08-16T06:02:06;99867.13;;;22.18;72.75
13968;BME280;39536;52.198;9.920;2022-08-16T06:04:33;99870.47;;;22.20;72.97
13968;BME280;39536;52.198;9.920;2022-08-16T06:06:59;99869.63;;;22.19;72.83
13968;BME280;39536;52.198;9.920;2022-08-16T06:09:30;99871.72;;;22.16;72.50
13968;BME280;39536;52.198;9.920;2022-08-16T06:11:56;99875.22;;;22.26;72.08
13968;BME280;39536;52.198;9.920;2022-08-16T06:14:26;99875.31;;;22.14;72.87
13968;BME280;39536;52.198;9.920;2022-08-16T06:16:52;99876.47;;;22.22;73.06
13968;BME280;39536;52.198;9.920;2022-08-16T06:19:19;99883.72;;;22.29;73.07
13968;BME280;39536;52.198;9.920;2022-08-16T06:21:45;99882.06;;;22.28;73.64
13968;BME280;39536;52.198;9.920;2022-08-16T06:24:12;99885.97;;;22.34;72.97
13968;BME280;39536;52.198;9.920;2022-08-16T06:26:39;99883.69;;;22.49;72.21
13968;BME280;39536;52.198;9.920;2022-08-16T06:29:06;99882.84;;;22.48;71.78
13968;BME280;39536;52.198;9.920;2022-08-16T06:31:33;99885.78;;;22.55;70.91
13968;BME280;39536;52.198;9.920;2022-08-16T06:34:00;99887.63;;;22.45;72.04
13968;BME280;39536;52.198;9.920;2022-08-16T06:36:26;99899.22;;;22.44;73.06
13968;BME280;39536;52.198;9.920;2022-08-16T06:38:53;99899.63;;;22.39;72.53
13968;BME280;39536;52.198;9.920;2022-08-16T06:41:20;99902.84;;;22.43;71.96
13968;BME280;39536;52.198;9.920;2022-08-16T06:43:46;99906.75;;;22.48;72.00
13968;BME280;39536;52.198;9.920;2022-08-16T06:46:22;99907.47;;;22.31;74.16
13968;BME280;39536;52.198;9.920;2022-08-16T06:48:50;99909.16;;;22.32;73.75
13968;BME280;39536;52.198;9.920;2022-08-16T06:51:17;99911.53;;;22.35;73.17
13968;BME280;39536;52.198;9.920;2022-08-16T06:53:43;99908.44;;;22.49;74.49
13968;BME280;39536;52.198;9.920;2022-08-16T06:56:10;99912.88;;;22.68;74.14
13968;BME280;39536;52.198;9.920;2022-08-16T06:58:36;99913.81;;;22.87;73.53
13968;BME280;39536;52.198;9.920;2022-08-16T07:01:03;99915.13;;;23.10;72.56
13968;BME280;39536;52.198;9.920;2022-08-16T07:03:30;99922.41;;;23.18;70.96
13968;BME280;39536;52.198;9.920;2022-08-16T07:05:58;99919.44;;;23.21;70.51
13968;BME280;39536;52.198;9.920;2022-08-16T07:08:25;99926.34;;;23.41;68.81
13968;BME280;39536;52.198;9.920;2022-08-16T07:10:52;99930.66;;;23.42;67.07
13968;BME280;39536;52.198;9.920;2022-08-16T07:13:19;99923.78;;;23.49;66.71
13968;BME280;39536;52.198;9.920;2022-08-16T07:15:46;99932.63;;;23.40;65.83
13968;BME280;39536;52.198;9.920;2022-08-16T07:18:14;99935.88;;;23.34;67.27
13968;BME280;39536;52.198;9.920;2022-08-16T07:20:43;99931.28;;;23.26;65.66
13968;BME280;39536;52.198;9.920;2022-08-16T07:23:11;99934.41;;;23.22;65.28
13968;BME280;39536;52.198;9.920;2022-08-16T07:25:38;99937.72;;;23.34;65.26
13968;BME280;39536;52.198;9.920;2022-08-16T07:28:04;99936.63;;;23.54;65.23
13968;BME280;39536;52.198;9.920;2022-08-16T07:30:31;99945.81;;;23.69;65.10
13968;BME280;39536;52.198;9.920;2022-08-16T07:32:58;99938.44;;;23.81;65.22
13968;BME280;39536;52.198;9.920;2022-08-16T07:35:25;99935.13;;;23.97;65.32
13968;BME280;39536;52.198;9.920;2022-08-16T07:37:51;99937.63;;;24.16;65.11
13968;BME280;39536;52.198;9.920;2022-08-16T07:40:19;99944.38;;;24.11;62.67
13968;BME280;39536;52.198;9.920;2022-08-16T07:42:46;99942.44;;;24.13;61.93
13968;BME280;39536;52.198;9.920;2022-08-16T07:45:12;99943.72;;;24.09;62.59
13968;BME280;39536;52.198;9.920;2022-08-16T07:47:39;99955.00;;;24.20;62.62
13968;BME280;39536;52.198;9.920;2022-08-16T07:50:07;99947.00;;;24.20;62.35
13968;BME280;39536;52.198;9.920;2022-08-16T07:52:34;99955.81;;;24.21;62.97
13968;BME280;39536;52.198;9.920;2022-08-16T07:55:00;99950.41;;;24.31;63.11
13968;BME280;39536;52.198;9.920;2022-08-16T07:57:28;99954.75;;;24.32;62.18
13968;BME280;39536;52.198;9.920;2022-08-16T07:59:55;99958.69;;;24.28;61.74
13968;BME280;39536;52.198;9.920;2022-08-16T08:02:21;99953.38;;;24.28;63.28
13968;BME280;39536;52.198;9.920;2022-08-16T08:04:48;99956.34;;;24.25;63.19
13968;BME280;39536;52.198;9.920;2022-08-16T08:07:14;99957.94;;;24.35;63.66
13968;BME280;39536;52.198;9.920;2022-08-16T08:09:40;99956.19;;;24.26;64.08
13968;BME280;39536;52.198;9.920;2022-08-16T08:12:07;99945.44;;;24.36;63.05
13968;BME280;39536;52.198;9.920;2022-08-16T08:14:35;99943.34;;;24.39;62.84
13968;BME280;39536;52.198;9.920;2022-08-16T08:17:02;99941.59;;;24.48;61.56
13968;BME280;39536;52.198;9.920;2022-08-16T08:19:31;99946.59;;;24.69;60.86
13968;BME280;39536;52.198;9.920;2022-08-16T08:21:58;99944.34;;;24.82;60.77
13968;BME280;39536;52.198;9.920;2022-08-16T08:24:24;99945.13;;;25.01;60.90
13968;BME280;39536;52.198;9.920;2022-08-16T08:26:52;99951.41;;;25.18;60.35
13968;BME280;39536;52.198;9.920;2022-08-16T08:29:19;99943.50;;;25.34;59.31
13968;BME280;39536;52.198;9.920;2022-08-16T08:31:47;99942.34;;;25.45;59.37
13968;BME280;39536;52.198;9.920;2022-08-16T08:34:13;99946.84;;;25.44;59.20
13968;BME280;39536;52.198;9.920;2022-08-16T08:36:41;99950.16;;;25.38;58.26
13968;BME280;39536;52.198;9.920;2022-08-16T08:39:08;99952.50;;;25.33;59.18
13968;BME280;39536;52.198;9.920;2022-08-16T08:41:35;99952.88;;;25.46;59.06
13968;BME280;39536;52.198;9.920;2022-08-16T08:44:01;99940.41;;;25.55;58.74
13968;BME280;39536;52.198;9.920;2022-08-16T08:46:28;99957.56;;;25.52;58.30
13968;BME280;39536;52.198;9.920;2022-08-16T08:49:14;99961.28;;;25.68;58.63
13968;BME280;39536;52.198;9.920;2022-08-16T08:51:54;99955.47;;;25.72;57.85
13968;BME280;39536;52.198;9.920;2022-08-16T08:55:03;99968.53;;;25.84;57.91
13968;BME280;39536;52.198;9.920;2022-08-16T08:57:53;99959.19;;;25.88;58.28
13968;BME280;39536;52.198;9.920;2022-08-16T09:01:04;99961.72;;;25.97;57.86
13968;BME280;39536;52.198;9.920;2022-08-16T09:07:19;99954.41;;;25.99;56.32
13968;BME280;39536;52.198;9.920;2022-08-16T09:13:21;99952.38;;;25.93;55.77
13968;BME280;39536;52.198;9.920;2022-08-16T09:15:54;99961.78;;;26.14;55.85
13968;BME280;39536;52.198;9.920;2022-08-16T09:18:38;99970.44;;;26.16;56.23
13968;BME280;39536;52.198;9.920;2022-08-16T09:21:18;99967.78;;;26.08;56.20
13968;BME280;39536;52.198;9.920;2022-08-16T09:23:52;99966.63;;;26.26;55.85
13968;BME280;39536;52.198;9.920;2022-08-16T09:26:19;99964.97;;;26.34;55.30
13968;BME280;39536;52.198;9.920;2022-08-16T09:28:50;99963.81;;;26.53;55.70
13968;BME280;39536;52.198;9.920;2022-08-16T09:31:17;99962.81;;;26.54;55.14
13968;BME280;39536;52.198;9.920;2022-08-16T09:33:44;99965.00;;;26.58;55.22
13968;BME280;39536;52.198;9.920;2022-08-16T09:36:11;99957.81;;;26.67;53.71
13968;BME280;39536;52.198;9.920;2022-08-16T09:38:38;99966.50;;;26.61;54.31
13968;BME280;39536;52.198;9.920;2022-08-16T09:41:08;99971.34;;;26.74;53.40
13968;BME280;39536;52.198;9.920;2022-08-16T09:43:36;99961.97;;;26.86;53.19
13968;BME280;39536;52.198;9.920;2022-08-16T09:46:07;99961.94;;;27.02;51.84
13968;BME280;39536;52.198;9.920;2022-08-16T09:48:34;99969.75;;;27.04;52.01
13968;BME280;39536;52.198;9.920;2022-08-16T09:51:01;99961.13;;;26.77;52.51
13968;BME280;39536;52.198;9.920;2022-08-16T09:53:28;99962.97;;;26.77;51.91
13968;BME280;39536;52.198;9.920;2022-08-16T09:55:56;99961.63;;;26.89;53.61
13968;BME280;39536;52.198;9.920;2022-08-16T09:58:25;99966.44;;;27.02;53.57
13968;BME280;39536;52.198;9.920;2022-08-16T10:00:53;99972.78;;;27.17;53.09
13968;BME280;39536;52.198;9.920;2022-08-16T10:03:20;99967.38;;;27.33;51.95
13968;BME280;39536;52.198;9.920;2022-08-16T10:05:47;99956.78;;;27.48;51.48
13968;BME280;39536;52.198;9.920;2022-08-16T10:08:14;99959.50;;;27.32;51.32
13968;BME280;39536;52.198;9.920;2022-08-16T10:10:42;99967.00;;;27.45;51.68
13968;BME280;39536;52.198;9.920;2022-08-16T10:13:30;99957.16;;;27.45;51.11
13968;BME280;39536;52.198;9.920;2022-08-16T10:15:58;99954.91;;;27.57;50.76
13968;BME280;39536;52.198;9.920;2022-08-16T10:18:25;99961.41;;;27.15;52.13
13968;BME280;39536;52.198;9.920;2022-08-16T10:20:54;99953.47;;;26.82;52.01
13968;BME280;39536;52.198;9.920;2022-08-16T10:23:21;99963.09;;;27.00;52.70
13968;BME280;39536;52.198;9.920;2022-08-16T10:25:47;99958.56;;;27.00;51.56
13968;BME280;39536;52.198;9.920;2022-08-16T10:28:14;99965.81;;;26.83;51.71
13968;BME280;39536;52.198;9.920;2022-08-16T10:30:43;99964.78;;;26.92;51.88
13968;BME280;39536;52.198;9.920;2022-08-16T10:33:10;99959.44;;;26.92;52.78
13968;BME280;39536;52.198;9.920;2022-08-16T10:35:38;99957.28;;;26.71;51.95
13968;BME280;39536;52.198;9.920;2022-08-16T10:38:08;99968.28;;;26.85;51.04
13968;BME280;39536;52.198;9.920;2022-08-16T10:40:35;99951.38;;;27.09;50.26
13968;BME280;39536;52.198;9.920;2022-08-16T10:43:01;99965.19;;;27.37;51.18
13968;BME280;39536;52.198;9.920;2022-08-16T10:45:29;99961.41;;;27.62;49.97
13968;BME280;39536;52.198;9.920;2022-08-16T10:47:58;99973.50;;;27.50;49.29
13968;BME280;39536;52.198;9.920;2022-08-16T10:50:25;99964.25;;;27.05;50.54
13968;BME280;39536;52.198;9.920;2022-08-16T10:52:52;99967.41;;;27.09;52.07
13968;BME280;39536;52.198;9.920;2022-08-16T10:55:18;99969.50;;;27.46;50.67
13968;BME280;39536;52.198;9.920;2022-08-16T10:57:45;99967.75;;;27.61;48.95
13968;BME280;39536;52.198;9.920;2022-08-16T11:00:15;99964.88;;;27.71;47.91
13968;BME280;39536;52.198;9.920;2022-08-16T11:02:42;99968.31;;;27.88;49.05
13968;BME280;39536;52.198;9.920;2022-08-16T11:05:15;99966.97;;;28.15;49.12
13968;BME280;39536;52.198;9.920;2022-08-16T11:07:46;99967.53;;;28.11;47.63
13968;BME280;39536;52.198;9.920;2022-08-16T11:10:16;99965.72;;;28.03;49.00
13968;BME280;39536;52.198;9.920;2022-08-16T11:12:43;99969.59;;;28.00;48.23
13968;BME280;39536;52.198;9.920;2022-08-16T11:15:10;99970.59;;;28.22;48.70
13968;BME280;39536;52.198;9.920;2022-08-16T11:17:36;99970.91;;;28.27;48.89
13968;BME280;39536;52.198;9.920;2022-08-16T11:20:05;99972.03;;;28.33;48.11
13968;BME280;39536;52.198;9.920;2022-08-16T11:22:33;99970.44;;;28.24;48.00
13968;BME280;39536;52.198;9.920;2022-08-16T11:24:59;99960.75;;;28.46;45.97
13968;BME280;39536;52.198;9.920;2022-08-16T11:27:26;99969.69;;;28.38;47.11
13968;BME280;39536;52.198;9.920;2022-08-16T11:29:54;99975.34;;;28.81;45.35
13968;BME280;39536;52.198;9.920;2022-08-16T11:32:22;99968.09;;;29.05;41.78
13968;BME280;39536;52.198;9.920;2022-08-16T11:34:49;99970.59;;;29.21;41.83
13968;BME280;39536;52.198;9.920;2022-08-16T11:37:16;99972.91;;;29.09;42.80
13968;BME280;39536;52.198;9.920;2022-08-16T11:39:43;99978.84;;;29.19;43.13
13968;BME280;39536;52.198;9.920;2022-08-16T11:42:10;99991.09;;;28.99;44.36
13968;BME280;39536;52.198;9.920;2022-08-16T11:44:36;99978.00;;;29.19;44.13
13968;BME280;39536;52.198;9.920;2022-08-16T11:47:03;99981.25;;;28.76;44.46
13968;BME280;39536;52.198;9.920;2022-08-16T11:49:29;99986.72;;;28.83;44.53
13968;BME280;39536;52.198;9.920;2022-08-16T11:51:56;99975.78;;;29.37;43.56
13968;BME280;39536;52.198;9.920;2022-08-16T11:54:22;99973.75;;;29.39;43.39
13968;BME280;39536;52.198;9.920;2022-08-16T11:56:50;99980.88;;;29.17;42.68
13968;BME280;39536;52.198;9.920;2022-08-16T11:59:17;99979.13;;;29.24;43.32
13968;BME280;39536;52.198;9.920;2022-08-16T12:01:44;99976.34;;;29.62;40.94
13968;BME280;39536;52.198;9.920;2022-08-16T12:04:11;99979.72;;;29.86;41.40
13968;BME280;39536;52.198;9.920;2022-08-16T12:06:38;99986.53;;;29.67;41.23
13968;BME280;39536;52.198;9.920;2022-08-16T12:09:05;99976.22;;;29.56;41.34
13968;BME280;39536;52.198;9.920;2022-08-16T12:11:31;99987.72;;;29.64;41.13
13968;BME280;39536;52.198;9.920;2022-08-16T12:14:05;99979.19;;;29.76;40.84
13968;BME280;39536;52.198;9.920;2022-08-16T12:16:33;99979.72;;;29.86;41.45
13968;BME280;39536;52.198;9.920;2022-08-16T12:19:01;99980.84;;;30.13;40.36
13968;BME280;39536;52.198;9.920;2022-08-16T12:21:28;99985.84;;;30.16;40.88
13968;BME280;39536;52.198;9.920;2022-08-16T12:23:54;99986.28;;;30.34;40.60
13968;BME280;39536;52.198;9.920;2022-08-16T12:26:21;99977.19;;;29.99;41.10
13968;BME280;39536;52.198;9.920;2022-08-16T12:28:47;99987.56;;;29.87;41.65
13968;BME280;39536;52.198;9.920;2022-08-16T12:31:15;99981.53;;;30.00;40.50
13968;BME280;39536;52.198;9.920;2022-08-16T12:33:42;99977.72;;;30.31;40.42
13968;BME280;39536;52.198;9.920;2022-08-16T12:36:09;99982.47;;;30.50;40.80
13968;BME280;39536;52.198;9.920;2022-08-16T12:38:35;99985.38;;;30.77;39.80
13968;BME280;39536;52.198;9.920;2022-08-16T12:41:02;99989.44;;;30.66;40.29
13968;BME280;39536;52.198;9.920;2022-08-16T12:43:29;99978.31;;;30.48;41.12
13968;BME280;39536;52.198;9.920;2022-08-16T12:45:55;99986.50;;;30.40;40.52
13968;BME280;39536;52.198;9.920;2022-08-16T12:48:27;99986.56;;;30.46;40.61
13968;BME280;39536;52.198;9.920;2022-08-16T12:51:15;99975.72;;;30.82;39.16
13968;BME280;39536;52.198;9.920;2022-08-16T12:53:43;99976.94;;;30.80;39.59
13968;BME280;39536;52.198;9.920;2022-08-16T12:56:10;99976.59;;;30.40;40.98
13968;BME280;39536;52.198;9.920;2022-08-16T12:58:37;99973.44;;;30.36;40.79
13968;BME280;39536;52.198;9.920;2022-08-16T13:01:05;99968.34;;;30.42;40.68
13968;BME280;39536;52.198;9.920;2022-08-16T13:03:33;99981.06;;;30.33;41.38
13968;BME280;39536;52.198;9.920;2022-08-16T13:06:02;99971.56;;;30.58;40.84
13968;BME280;39536;52.198;9.920;2022-08-16T13:08:29;99978.25;;;30.41;40.96
13968;BME280;39536;52.198;9.920;2022-08-16T13:10:55;99966.44;;;29.99;41.63